createdAt,value
2018-07-12T00:02:18.383Z,13.27
2018-07-12T00:04:46.118Z,8.00
2018-07-12T00:07:14.269Z,11.30
2018-07-12T00:09:41.567Z,9.73
2018-07-12T00:12:08.849Z,9.43
2018-07-12T00:14:36.144Z,9.23
2018-07-12T00:17:03.459Z,9.23
2018-07-12T00:19:30.872Z,7.73
2018-07-12T00:21:58.208Z,9.97
2018-07-12T00:24:25.487Z,10.60
2018-07-12T00:26:52.765Z,9.93
2018-07-12T00:29:20.067Z,9.60
2018-07-12T00:31:47.397Z,10.50
2018-07-12T00:34:14.690Z,10.53
2018-07-12T00:36:42.028Z,10.77
2018-07-12T00:39:09.478Z,11.73
2018-07-12T00:41:36.768Z,9.27
2018-07-12T00:44:04.081Z,8.97
2018-07-12T00:46:31.423Z,7.63
2018-07-12T00:48:58.719Z,10.27
2018-07-12T00:51:26.020Z,11.87
2018-07-12T00:53:53.320Z,10.33
2018-07-12T00:56:20.700Z,10.13
2018-07-12T00:58:47.976Z,7.93
2018-07-12T01:01:15.357Z,11.83
2018-07-12T01:03:42.637Z,9.40
2018-07-12T01:06:09.969Z,12.63
2018-07-12T01:08:37.287Z,9.87
2018-07-12T01:11:04.630Z,8.60
2018-07-12T01:13:31.959Z,8.37
2018-07-12T01:15:59.273Z,9.87
2018-07-12T01:18:26.567Z,8.70
2018-07-12T01:20:53.863Z,9.80
2018-07-12T01:23:21.140Z,9.97
2018-07-12T01:25:48.448Z,9.77
2018-07-12T01:28:15.755Z,9.80
2018-07-12T01:30:43.188Z,8.60
2018-07-12T01:33:10.652Z,11.50
2018-07-12T01:35:37.986Z,10.70
2018-07-12T01:38:05.288Z,8.87
2018-07-12T01:40:32.597Z,8.60
2018-07-12T01:42:59.920Z,7.80
2018-07-12T01:45:27.308Z,9.30
2018-07-12T01:47:54.603Z,9.20
2018-07-12T01:50:21.988Z,8.20
2018-07-12T01:52:49.267Z,8.10
2018-07-12T01:55:16.560Z,7.97
2018-07-12T01:57:43.840Z,10.27
2018-07-12T02:00:11.138Z,9.30
2018-07-12T02:02:38.553Z,8.30
2018-07-12T02:05:06.223Z,9.27
2018-07-12T02:07:33.509Z,11.30
2018-07-12T02:10:00.896Z,13.10
2018-07-12T02:12:28.188Z,8.10
2018-07-12T02:14:55.464Z,10.27
2018-07-12T02:17:22.773Z,8.40
2018-07-12T02:19:56.308Z,8.53
2018-07-12T02:22:23.676Z,8.87
2018-07-12T02:24:50.957Z,12.40
2018-07-12T02:27:18.272Z,8.50
2018-07-12T02:29:45.737Z,9.83
2018-07-12T02:32:13.039Z,8.53
2018-07-12T02:34:40.353Z,9.83
2018-07-12T02:37:07.669Z,11.37
2018-07-12T02:39:34.972Z,10.30
2018-07-12T02:42:02.284Z,9.30
2018-07-12T02:44:29.557Z,10.37
2018-07-12T02:46:56.846Z,13.43
2018-07-12T02:49:24.215Z,14.30
2018-07-12T02:51:51.508Z,12.20
2018-07-12T02:54:18.861Z,9.90
2018-07-12T02:56:46.160Z,8.20
2018-07-12T02:59:13.465Z,7.57
2018-07-12T03:01:40.776Z,9.00
2018-07-12T03:04:08.084Z,8.60
2018-07-12T03:06:35.445Z,8.80
2018-07-12T03:09:02.826Z,7.03
2018-07-12T03:11:30.121Z,11.37
2018-07-12T03:13:57.420Z,9.37
2018-07-12T03:16:41.755Z,9.53
2018-07-12T03:19:09.092Z,8.20
2018-07-12T03:21:36.448Z,12.23
2018-07-12T03:24:03.743Z,9.17
2018-07-12T03:26:31.047Z,9.93
2018-07-12T03:28:58.360Z,10.00
2018-07-12T03:31:25.744Z,9.47
2018-07-12T03:33:53.137Z,8.63
2018-07-12T03:36:20.488Z,8.17
2018-07-12T03:38:47.798Z,8.90
2018-07-12T03:41:15.092Z,8.47
2018-07-12T03:43:42.396Z,11.47
2018-07-12T03:46:09.749Z,11.00
2018-07-12T03:48:37.168Z,10.80
2018-07-12T03:51:04.471Z,8.23
2018-07-12T03:53:31.809Z,8.90
2018-07-12T03:55:59.117Z,11.00
2018-07-12T03:58:26.417Z,9.60
2018-07-12T04:00:53.718Z,9.30
2018-07-12T04:03:21.034Z,15.27
2018-07-12T04:05:48.813Z,10.10
2018-07-12T04:08:16.100Z,10.27
2018-07-12T04:10:43.383Z,8.47
2018-07-12T04:13:10.715Z,10.83
2018-07-12T04:15:38.044Z,10.07
2018-07-12T04:18:05.350Z,9.50
2018-07-12T04:20:32.649Z,9.70
2018-07-12T04:22:59.951Z,9.40
2018-07-12T04:25:27.271Z,10.80
2018-07-12T04:27:54.628Z,9.53
2018-07-12T04:30:21.913Z,10.37
2018-07-12T04:32:49.201Z,11.93
2018-07-12T04:35:16.545Z,10.33
2018-07-12T04:37:43.898Z,9.50
2018-07-12T04:40:11.196Z,10.43
2018-07-12T04:42:38.532Z,13.43
2018-07-12T04:45:05.854Z,9.70
2018-07-12T04:47:33.201Z,18.70
2018-07-12T04:50:00.499Z,8.43
2018-07-12T04:52:27.829Z,9.93
2018-07-12T04:54:55.117Z,9.40
2018-07-12T04:57:22.453Z,16.70
2018-07-12T04:59:49.778Z,14.17
2018-07-12T05:02:17.068Z,9.13
2018-07-12T05:04:44.370Z,9.30
2018-07-12T05:07:11.922Z,9.70
2018-07-12T05:09:39.232Z,9.90
2018-07-12T05:12:06.540Z,9.93
2018-07-12T05:14:33.877Z,10.70
2018-07-12T05:17:01.157Z,8.57
2018-07-12T05:19:28.442Z,10.30
2018-07-12T05:21:55.782Z,9.17
2018-07-12T05:24:23.079Z,12.43
2018-07-12T05:26:50.374Z,11.47
2018-07-12T05:29:17.669Z,16.60
2018-07-12T05:31:44.997Z,16.00
2018-07-12T05:34:12.284Z,10.73
2018-07-12T05:36:53.084Z,11.80
2018-07-12T05:39:22.053Z,14.70
2018-07-12T05:41:51.105Z,19.33
2018-07-12T05:44:19.737Z,16.23
2018-07-12T05:46:48.718Z,20.40
2018-07-12T05:49:17.405Z,14.90
2018-07-12T05:51:46.808Z,13.53
2018-07-12T05:54:16.082Z,13.97
2018-07-12T05:56:44.796Z,13.70
2018-07-12T05:59:13.546Z,12.37
2018-07-12T06:01:53.211Z,15.53
2018-07-12T06:04:21.813Z,15.30
2018-07-12T06:06:51.174Z,18.37
2018-07-12T06:09:19.859Z,14.93
2018-07-12T06:11:48.445Z,12.60
2018-07-12T06:14:16.983Z,10.33
2018-07-12T06:16:45.567Z,9.40
2018-07-12T06:19:14.332Z,9.53
2018-07-12T06:21:42.943Z,7.40
2018-07-12T06:24:11.614Z,8.33
2018-07-12T06:26:40.344Z,7.87
2018-07-12T06:29:08.936Z,7.47
2018-07-12T06:31:37.481Z,5.47
2018-07-12T06:34:06.122Z,6.93
2018-07-12T06:36:34.642Z,6.83
2018-07-12T06:39:03.471Z,6.20
2018-07-12T06:41:32.204Z,5.83
2018-07-12T06:44:00.777Z,9.63
2018-07-12T06:46:29.375Z,10.93
2018-07-12T06:48:57.946Z,8.83
2018-07-12T06:51:26.484Z,8.50
2018-07-12T06:53:55.066Z,6.27
2018-07-12T06:56:23.628Z,10.30
2018-07-12T06:58:52.435Z,13.80
2018-07-12T07:01:21.814Z,7.30
2018-07-12T07:03:50.366Z,6.30
2018-07-12T07:06:19.055Z,7.50
2018-07-12T07:08:47.676Z,8.67
2018-07-12T07:11:16.490Z,9.40
2018-07-12T07:13:45.440Z,9.90
2018-07-12T07:16:14.057Z,6.10
2018-07-12T07:18:42.723Z,6.17
2018-07-12T07:21:11.830Z,8.13
2018-07-12T07:23:40.387Z,8.33
2018-07-12T07:26:09.032Z,7.53
2018-07-12T07:28:37.600Z,8.07
2018-07-12T07:31:06.316Z,9.50
2018-07-12T07:33:34.843Z,9.10
2018-07-12T07:36:03.442Z,7.70
2018-07-12T07:38:31.979Z,7.90
2018-07-12T07:41:00.569Z,7.87
2018-07-12T07:43:29.449Z,8.70
2018-07-12T07:45:58.040Z,6.80
2018-07-12T07:48:27.016Z,6.90
2018-07-12T07:50:55.648Z,5.93
2018-07-12T07:53:24.341Z,9.43
2018-07-12T07:55:52.915Z,6.90
2018-07-12T07:58:21.465Z,6.77
2018-07-12T08:00:50.060Z,8.53
2018-07-12T08:03:29.237Z,7.30
2018-07-12T08:05:57.942Z,6.67
2018-07-12T08:08:27.735Z,11.80
2018-07-12T08:10:56.457Z,11.93
2018-07-12T08:13:25.202Z,7.50
2018-07-12T08:15:53.745Z,6.47
2018-07-12T08:18:22.294Z,6.73
2018-07-12T08:20:50.864Z,9.00
2018-07-12T08:23:19.556Z,8.57
2018-07-12T08:25:48.208Z,8.67
2018-07-12T08:28:27.580Z,8.80
2018-07-12T08:30:56.497Z,7.70
2018-07-12T08:33:25.575Z,10.00
2018-07-12T08:35:54.033Z,7.87
2018-07-12T08:38:22.695Z,6.80
2018-07-12T08:40:51.221Z,9.60
2018-07-12T08:43:19.800Z,6.37
2018-07-12T08:45:48.375Z,5.73
2018-07-12T08:48:16.973Z,6.67
2018-07-12T08:50:45.539Z,7.33
2018-07-12T08:53:14.446Z,11.67
2018-07-12T08:55:43.000Z,13.43
2018-07-12T08:58:13.463Z,6.63
2018-07-12T09:00:42.448Z,5.90
2018-07-12T09:03:11.118Z,11.13
2018-07-12T09:05:39.727Z,6.37
2018-07-12T09:08:08.310Z,7.37
2018-07-12T09:10:37.040Z,6.13
2018-07-12T09:13:05.781Z,6.10
2018-07-12T09:15:34.364Z,7.83
2018-07-12T09:18:02.938Z,6.43
2018-07-12T09:20:34.407Z,7.03
2018-07-12T09:23:02.989Z,6.73
2018-07-12T09:25:31.584Z,5.80
2018-07-12T09:28:00.128Z,7.07
2018-07-12T09:30:28.831Z,6.93
2018-07-12T09:32:57.701Z,5.40
2018-07-12T09:35:26.492Z,7.00
2018-07-12T09:37:55.105Z,8.30
2018-07-12T09:40:23.700Z,6.73
2018-07-12T09:42:52.527Z,5.93
2018-07-12T09:45:21.595Z,7.97
2018-07-12T09:47:50.147Z,8.00
2018-07-12T09:50:18.733Z,8.83
2018-07-12T09:52:47.292Z,11.30
2018-07-12T09:55:16.140Z,8.97
2018-07-12T09:57:55.831Z,6.00
2018-07-12T10:00:29.536Z,7.53
2018-07-12T10:03:03.451Z,9.03
2018-07-12T10:05:40.185Z,10.30
2018-07-12T10:08:13.999Z,7.07
2018-07-12T10:10:49.337Z,9.77
2018-07-12T10:13:30.049Z,7.00
2018-07-12T10:16:08.653Z,6.30
2018-07-12T10:18:37.424Z,5.43
2018-07-12T10:21:06.076Z,6.43
2018-07-12T10:23:34.671Z,10.80
2018-07-12T10:26:03.258Z,8.20
2018-07-12T10:28:31.804Z,7.33
2018-07-12T10:31:00.497Z,6.20
2018-07-12T10:33:29.110Z,6.43
2018-07-12T10:35:57.725Z,7.40
2018-07-12T10:38:26.329Z,8.50
2018-07-12T10:40:54.894Z,7.23
2018-07-12T10:43:23.614Z,12.30
2018-07-12T10:45:52.362Z,5.97
2018-07-12T10:48:20.980Z,11.50
2018-07-12T10:50:49.700Z,6.77
2018-07-12T10:53:18.251Z,8.30
2018-07-12T10:55:46.879Z,7.00
2018-07-12T10:58:15.558Z,8.10
2018-07-12T11:00:44.204Z,7.97
2018-07-12T11:03:13.818Z,12.47
2018-07-12T11:05:42.407Z,13.20
2018-07-12T11:08:11.034Z,6.83
2018-07-12T11:10:39.629Z,9.03
2018-07-12T11:13:18.413Z,12.80
2018-07-12T11:24:18.568Z,8.30
2018-07-12T11:26:47.200Z,8.83
2018-07-12T11:29:15.800Z,8.00
2018-07-12T11:31:44.347Z,6.00
2018-07-12T11:34:13.015Z,7.43
2018-07-12T11:36:41.611Z,6.50
2018-07-12T11:39:10.430Z,12.73
2018-07-12T11:41:39.050Z,7.77
2018-07-12T11:44:07.571Z,5.83
2018-07-12T11:46:36.184Z,8.80
2018-07-12T11:49:04.765Z,9.73
2018-07-12T11:51:33.365Z,5.90
2018-07-12T11:54:01.960Z,7.50
2018-07-12T11:56:30.543Z,7.23
2018-07-12T11:58:59.169Z,7.63
2018-07-12T12:01:27.829Z,9.07
2018-07-12T12:03:56.325Z,8.43
2018-07-12T12:06:24.911Z,8.73
2018-07-12T12:08:53.469Z,8.67
2018-07-12T12:11:22.752Z,8.87
2018-07-12T12:13:51.700Z,7.90
2018-07-12T12:16:20.424Z,6.70
2018-07-12T12:18:48.985Z,8.40
2018-07-12T12:21:21.875Z,6.17
2018-07-12T12:23:54.071Z,7.53
2018-07-12T12:26:23.909Z,5.30
2018-07-12T12:28:52.647Z,6.13
2018-07-12T12:31:31.565Z,5.57
2018-07-12T12:34:00.225Z,8.17
2018-07-12T12:36:28.972Z,5.17
2018-07-12T12:38:57.660Z,6.13
2018-07-12T12:41:26.235Z,8.40
2018-07-12T12:43:54.983Z,6.00
2018-07-12T12:46:24.031Z,4.73
2018-07-12T12:48:52.606Z,8.90
2018-07-12T12:51:21.318Z,5.10
2018-07-12T12:53:49.968Z,5.93
2018-07-12T12:56:18.712Z,5.80
2018-07-12T12:58:47.383Z,8.27
2018-07-12T13:01:15.986Z,7.53
2018-07-12T13:03:44.608Z,9.00
2018-07-12T13:06:13.267Z,6.20
2018-07-12T13:08:41.976Z,4.70
2018-07-12T13:11:10.635Z,11.40
2018-07-12T13:13:39.314Z,5.97
2018-07-12T13:16:07.927Z,6.20
2018-07-12T13:18:36.537Z,6.43
2018-07-12T13:21:05.513Z,5.90
2018-07-12T13:23:34.093Z,6.13
2018-07-12T13:26:02.693Z,6.20
2018-07-12T13:28:31.281Z,4.70
2018-07-12T13:30:59.860Z,5.90
2018-07-12T13:33:28.676Z,3.20
2018-07-12T13:35:57.229Z,3.47
2018-07-12T13:38:25.814Z,4.33
2018-07-12T13:40:54.415Z,13.50
2018-07-12T13:43:22.936Z,3.13
2018-07-12T13:45:51.544Z,7.03
2018-07-12T13:48:20.110Z,3.63
2018-07-12T13:50:48.677Z,3.40
2018-07-12T13:53:17.230Z,4.47
2018-07-12T13:55:45.926Z,3.90
2018-07-12T13:58:14.518Z,3.10
2018-07-12T14:00:43.081Z,8.37
2018-07-12T14:03:11.979Z,5.43
2018-07-12T14:05:40.624Z,3.00
2018-07-12T14:08:09.173Z,2.90
2018-07-12T14:10:37.769Z,3.13
2018-07-12T14:13:06.763Z,8.20
2018-07-12T14:15:35.350Z,3.23
2018-07-12T14:18:03.888Z,3.43
2018-07-12T14:20:32.537Z,5.60
2018-07-12T14:23:01.132Z,3.20
2018-07-12T14:25:29.659Z,16.57
2018-07-12T14:27:58.207Z,5.10
2018-07-12T14:30:26.861Z,3.60
2018-07-12T14:32:56.200Z,2.87
2018-07-12T14:35:36.857Z,9.20
2018-07-12T14:38:06.195Z,4.90
2018-07-12T14:40:35.590Z,5.60
2018-07-12T14:43:05.097Z,3.57
2018-07-12T14:45:33.786Z,3.83
2018-07-12T14:48:03.214Z,11.33
2018-07-12T14:50:31.885Z,3.20
2018-07-12T14:53:01.130Z,4.43
2018-07-12T14:55:29.924Z,4.07
2018-07-12T14:57:58.462Z,4.20
2018-07-12T15:00:27.052Z,4.23
2018-07-12T15:02:55.661Z,5.30
2018-07-12T15:05:24.449Z,5.70
2018-07-12T15:07:53.057Z,5.33
2018-07-12T15:10:21.743Z,5.60
2018-07-12T15:12:50.318Z,6.47
2018-07-12T15:15:19.519Z,3.27
2018-07-12T15:17:48.100Z,19.37
2018-07-12T15:20:16.705Z,21.30
2018-07-12T15:22:45.297Z,9.03
2018-07-12T15:25:14.669Z,10.90
2018-07-12T15:27:43.262Z,15.20
2018-07-12T15:30:11.857Z,8.30
2018-07-12T15:32:40.423Z,7.90
2018-07-12T15:35:09.127Z,9.80
2018-07-12T15:37:37.836Z,5.60
2018-07-12T15:40:06.421Z,3.60
2018-07-12T15:42:35.252Z,3.27
2018-07-12T15:45:03.914Z,8.57
2018-07-12T15:47:32.493Z,3.47
2018-07-12T15:50:01.232Z,2.37
2018-07-12T15:52:29.787Z,3.43
2018-07-12T15:54:58.386Z,8.40
2018-07-12T15:57:27.271Z,4.10
2018-07-12T15:59:55.872Z,3.43
2018-07-12T16:02:24.419Z,3.37
2018-07-12T16:04:53.012Z,3.10
2018-07-12T16:07:21.808Z,4.03
2018-07-12T16:09:50.414Z,4.60
2018-07-12T16:12:19.104Z,3.33
2018-07-12T16:14:47.711Z,3.83
2018-07-12T16:17:17.457Z,2.87
2018-07-12T16:19:46.922Z,4.60
2018-07-12T16:22:16.380Z,2.40
2018-07-12T16:24:45.790Z,2.93
2018-07-12T16:27:14.396Z,3.33
2018-07-12T16:29:43.140Z,3.20
2018-07-12T16:32:11.712Z,2.97
2018-07-12T16:34:40.282Z,7.10
2018-07-12T16:37:11.766Z,3.53
2018-07-12T16:39:40.375Z,2.70
2018-07-12T16:42:08.978Z,2.67
2018-07-12T16:44:37.672Z,4.30
2018-07-12T16:47:07.052Z,3.10
2018-07-12T16:49:35.680Z,4.30
2018-07-12T16:52:04.229Z,3.27
2018-07-12T16:54:33.243Z,3.07
2018-07-12T16:57:01.867Z,3.40
2018-07-12T16:59:30.410Z,3.10
2018-07-12T17:01:59.009Z,3.37
2018-07-12T17:04:27.564Z,3.20
2018-07-12T17:06:56.264Z,2.80
2018-07-12T17:09:24.999Z,3.17
2018-07-12T17:11:53.596Z,2.97
2018-07-12T17:14:22.273Z,6.23
2018-07-12T17:16:50.866Z,3.20
2018-07-12T17:19:19.466Z,3.33
2018-07-12T17:21:48.123Z,3.20
2018-07-12T17:24:16.821Z,3.00
2018-07-12T17:26:45.441Z,3.47
2018-07-12T17:29:14.079Z,2.57
2018-07-12T17:31:42.625Z,4.10
2018-07-12T17:34:11.238Z,3.87
2018-07-12T17:36:39.897Z,3.97
2018-07-12T17:39:09.282Z,3.10
2018-07-12T17:44:28.057Z,3.07
2018-07-12T17:46:56.645Z,3.70
2018-07-12T17:49:25.335Z,3.47
2018-07-12T17:57:34.575Z,3.27
2018-07-12T18:00:03.273Z,2.97
2018-07-12T18:02:31.845Z,3.53
2018-07-12T18:05:01.912Z,3.10
2018-07-12T18:07:31.751Z,3.50
2018-07-12T18:10:01.212Z,3.43
2018-07-12T18:12:30.767Z,6.63
2018-07-12T18:14:59.350Z,3.13
2018-07-12T18:17:27.931Z,3.57
2018-07-12T18:19:56.479Z,4.23
2018-07-12T18:22:25.118Z,3.47
2018-07-12T18:24:53.836Z,3.47
2018-07-12T18:27:22.651Z,3.40
2018-07-12T18:29:51.224Z,3.00
2018-07-12T18:32:20.037Z,3.70
2018-07-12T18:34:48.824Z,3.03
2018-07-12T18:37:17.568Z,3.10
2018-07-12T18:39:46.256Z,3.67
2018-07-12T18:42:14.987Z,6.77
2018-07-12T18:44:43.871Z,3.73
2018-07-12T18:47:12.640Z,4.07
2018-07-12T18:49:41.361Z,3.70
2018-07-12T18:52:28.832Z,3.43
2018-07-12T18:54:57.430Z,4.30
2018-07-12T18:57:26.154Z,3.10
2018-07-12T18:59:54.734Z,3.97
2018-07-12T19:02:23.325Z,3.63
2018-07-12T19:04:51.896Z,3.60
2018-07-12T19:07:20.938Z,4.30
2018-07-12T19:09:49.554Z,3.30
2018-07-12T19:12:18.336Z,4.00
2018-07-12T19:14:47.030Z,3.60
2018-07-12T19:17:15.640Z,3.27
2018-07-12T19:19:44.353Z,3.37
2018-07-12T19:22:13.132Z,4.00
2018-07-12T19:24:41.992Z,4.80
2018-07-12T19:27:11.057Z,3.30
2018-07-12T19:29:39.603Z,5.77
2018-07-12T19:32:08.351Z,6.43
2018-07-12T19:34:37.221Z,4.30
2018-07-12T19:37:05.777Z,4.40
2018-07-12T19:39:34.357Z,4.10
2018-07-12T19:42:02.911Z,4.23
2018-07-12T19:44:31.498Z,3.53
2018-07-12T19:47:00.579Z,3.93
2018-07-12T19:49:29.132Z,4.33
2018-07-12T19:51:57.691Z,4.57
2018-07-12T19:54:28.672Z,3.70
2018-07-12T19:56:58.349Z,4.33
2018-07-12T19:59:27.006Z,5.00
2018-07-12T20:01:55.562Z,3.63
2018-07-12T20:04:24.476Z,3.57
2018-07-12T20:06:53.913Z,3.77
2018-07-12T20:09:22.627Z,4.70
2018-07-12T20:11:51.183Z,5.30
2018-07-12T20:14:20.055Z,9.27
2018-07-12T20:16:48.625Z,29.67
2018-07-12T20:19:17.221Z,30.57
2018-07-12T20:21:45.787Z,27.90
2018-07-12T20:24:14.380Z,12.57
2018-07-12T20:26:42.947Z,7.97
2018-07-12T20:29:11.645Z,5.47
2018-07-12T20:31:40.490Z,4.77
2018-07-12T20:34:09.068Z,4.23
2018-07-12T20:36:37.753Z,7.70
2018-07-12T20:39:07.800Z,3.73
2018-07-12T20:41:36.496Z,4.53
2018-07-12T20:44:05.065Z,4.60
2018-07-12T20:46:33.610Z,3.93
2018-07-12T20:49:02.171Z,4.07
2018-07-12T20:51:30.777Z,5.07
2018-07-12T20:53:59.361Z,6.00
2018-07-12T20:56:27.984Z,5.87
2018-07-12T20:58:56.575Z,5.60
2018-07-12T21:01:25.145Z,4.90
2018-07-12T21:03:54.543Z,4.60
2018-07-12T21:06:23.235Z,4.70
2018-07-12T21:08:51.799Z,4.17
2018-07-12T21:11:20.389Z,5.60
2018-07-12T21:13:48.936Z,3.83
2018-07-12T21:16:17.521Z,4.17
2018-07-12T21:18:46.104Z,5.37
2018-07-12T21:21:15.065Z,4.50
2018-07-12T21:23:43.722Z,4.60
2018-07-12T21:26:12.275Z,5.07
2018-07-12T21:28:40.907Z,9.53
2018-07-12T21:31:09.648Z,4.57
2018-07-12T21:33:38.266Z,3.97
2018-07-12T21:36:06.874Z,4.13
2018-07-12T21:38:35.408Z,4.97
2018-07-12T21:41:04.012Z,5.50
2018-07-12T21:43:32.784Z,3.70
2018-07-12T21:46:01.697Z,4.27
2018-07-12T21:48:30.295Z,4.17
2018-07-12T21:50:58.948Z,4.57
2018-07-12T21:53:27.597Z,6.50
2018-07-12T21:55:56.639Z,4.33
2018-07-12T21:58:25.180Z,4.40
2018-07-12T22:00:53.800Z,5.93
2018-07-12T22:03:22.580Z,5.07
2018-07-12T22:05:54.194Z,3.90
2018-07-12T22:08:28.425Z,3.43
2018-07-12T22:11:00.626Z,3.80
2018-07-12T22:13:29.916Z,3.97
2018-07-12T22:15:58.612Z,4.50
2018-07-12T22:18:27.201Z,4.03
2018-07-12T22:20:55.835Z,4.80
2018-07-12T22:23:24.652Z,5.80
2018-07-12T22:25:53.263Z,4.37
2018-07-12T22:28:22.008Z,3.80
2018-07-12T22:30:50.760Z,5.37
2018-07-12T22:33:19.514Z,3.83
2018-07-12T22:35:48.204Z,4.30
2018-07-12T22:38:16.756Z,6.60
2018-07-12T22:40:45.555Z,3.97
2018-07-12T22:43:14.208Z,5.43
2018-07-12T22:45:42.825Z,4.50
2018-07-12T22:48:11.487Z,4.00
2018-07-12T22:50:40.057Z,4.97
2018-07-12T22:53:08.670Z,4.93
2018-07-12T22:55:37.433Z,6.13
2018-07-12T22:58:06.128Z,5.30
2018-07-12T23:00:34.732Z,4.73
2018-07-12T23:03:03.514Z,4.80
2018-07-12T23:05:32.232Z,4.33
2018-07-12T23:08:00.796Z,5.17
2018-07-12T23:10:29.902Z,6.10
2018-07-12T23:12:58.521Z,4.43
2018-07-12T23:15:27.226Z,5.00
2018-07-12T23:17:55.826Z,5.00
2018-07-12T23:20:24.601Z,4.13
2018-07-12T23:22:53.549Z,4.47
2018-07-12T23:25:22.194Z,4.03
2018-07-12T23:27:50.753Z,4.17
2018-07-12T23:30:19.513Z,5.03
2018-07-12T23:32:48.127Z,4.53
2018-07-12T23:35:16.823Z,4.80
2018-07-12T23:37:45.508Z,4.70
2018-07-12T23:40:14.090Z,4.80
2018-07-12T23:42:42.704Z,4.70
2018-07-12T23:45:11.828Z,4.33
2018-07-12T23:47:40.514Z,4.80
2018-07-12T23:50:09.060Z,4.70
2018-07-12T23:52:37.652Z,6.33
2018-07-12T23:55:06.268Z,5.97
2018-07-12T23:57:34.971Z,7.93
